Airfield :
LOGIN :

Register | Disclaimer

   EN    FR    IT 

 










Legend :    VFR   Marginal VFR   IFR   Intensive IFR   Very Intensive IFR
Visi :
Ceiling :
>= 8 km
>= 3000ft
5 to 8 km
1000 to 3000 ft
1500m to 5 km
500 to 1000 ft
800 to 1500m
200 to 500 ft
< 800m
< 200 ft
Symbols :   Thunderstorms  Fog  Heavy snow  Heavy precipitations  Wind > 20 kt
SIGMETs :     Misc.  Thunderstorms  Icing  Turbulence  Mountain Waves  Volcanic Ashes






- Airport Elevation : 23 ft
- IATA code : XFW


EDHI - Hamburg Finkenwerder

CURRENT METAR :
  • 072120Z AUTO 25015KT 9999 // FEW015/// BKN019/// OVC051/// 09/06 Q1008

EXPIRED METARs :
  • 072050Z AUTO 25014KT 9999 // BKN016/// BKN019/// OVC040/// 09/07 Q1008
  • 072020Z AUTO 24015KT 9999 // SCT014/// OVC016/// 09/07 Q1008
  • 071950Z AUTO 24013KT 9999 // SCT014/// BKN048/// OVC160/// 08/07 Q1008
  • 071920Z AUTO 24011KT 9999 // FEW014/// SCT045/// OVC140/// 08/06 Q1008
  • 071850Z AUTO 24012KT 9999 // FEW016/// BKN042/// OVC140/// 08/07 Q1009

Expired Forecast.



MET'MAP, your aeronautical weather chart ! - Copyright ORBIFLY December 2007 - Disclaimer

ORBIFLY MET'MAP TEAM :

Programming & Development : Alexandra Zaïnal
Concept & original design : Baudouin d'Aumeries
Assistance for programming : Marc-Olivier Méhu
Technical & hardware support : Manuel Goepfert

Contact : metmap@orbifly.com




SOURCES & CREDITS :

   NOAA